createdAt,value
2024-01-27T00:02:18.004Z,5.30
2024-01-27T00:04:47.820Z,4.82
2024-01-27T00:07:17.721Z,4.40
2024-01-27T00:09:47.628Z,4.20
2024-01-27T00:12:17.449Z,5.18
2024-01-27T00:14:47.680Z,4.70
2024-01-27T00:17:22.583Z,4.28
2024-01-27T00:19:52.698Z,5.00
2024-01-27T00:22:22.622Z,4.00
2024-01-27T00:24:52.459Z,4.25
2024-01-27T00:27:22.347Z,3.42
2024-01-27T00:29:52.339Z,4.72
2024-01-27T00:32:24.840Z,4.53
2024-01-27T00:34:54.790Z,5.07
2024-01-27T00:37:24.642Z,4.57
2024-01-27T00:39:54.428Z,4.70
2024-01-27T00:42:25.891Z,5.00
2024-01-27T00:44:56.075Z,4.80
2024-01-27T00:47:28.768Z,4.63
2024-01-27T00:49:58.636Z,4.55
2024-01-27T00:52:28.521Z,4.95
2024-01-27T00:54:58.320Z,4.25
2024-01-27T00:57:28.228Z,4.22
2024-01-27T00:59:58.168Z,4.30
2024-01-27T01:02:30.829Z,4.50
2024-01-27T01:05:00.696Z,4.70
2024-01-27T01:07:30.577Z,3.95
2024-01-27T01:10:00.432Z,4.72
2024-01-27T01:12:30.321Z,4.90
2024-01-27T01:15:00.331Z,4.18
2024-01-27T01:17:32.828Z,4.30
2024-01-27T01:20:02.774Z,4.50
2024-01-27T01:22:32.691Z,4.40
2024-01-27T01:25:02.518Z,4.68
2024-01-27T01:27:32.319Z,5.20
2024-01-27T01:30:02.204Z,4.38
2024-01-27T01:32:34.722Z,4.25
2024-01-27T01:35:05.043Z,4.97
2024-01-27T01:37:34.869Z,4.82
2024-01-27T01:40:04.664Z,4.47
2024-01-27T01:42:34.530Z,4.65
2024-01-27T01:45:04.459Z,3.83
2024-01-27T01:47:37.244Z,5.47
2024-01-27T01:50:09.385Z,4.78
2024-01-27T01:52:40.054Z,5.40
2024-01-27T01:55:10.973Z,4.05
2024-01-27T01:57:41.543Z,4.38
2024-01-27T02:00:12.454Z,4.22
2024-01-27T02:02:47.453Z,4.50
2024-01-27T02:05:17.728Z,4.47
2024-01-27T02:07:47.511Z,4.53
2024-01-27T02:10:18.789Z,4.10
2024-01-27T02:12:48.899Z,4.40
2024-01-27T02:15:18.826Z,4.88
2024-01-27T02:17:51.396Z,5.07
2024-01-27T02:20:24.006Z,4.25
2024-01-27T02:22:53.797Z,4.63
2024-01-27T02:25:26.320Z,4.45
2024-01-27T02:27:56.123Z,4.40
2024-01-27T02:30:26.029Z,4.38
2024-01-27T02:32:56.321Z,4.38
2024-01-27T02:35:26.241Z,4.93
2024-01-27T02:37:56.037Z,4.70
2024-01-27T02:40:28.552Z,4.63
2024-01-27T02:42:58.352Z,3.80
2024-01-27T02:45:28.260Z,4.80
2024-01-27T02:47:58.317Z,3.83
2024-01-27T02:50:28.589Z,4.20
2024-01-27T02:52:58.473Z,4.82
2024-01-27T02:55:30.940Z,4.32
2024-01-27T02:58:00.715Z,4.55
2024-01-27T03:00:30.680Z,5.15
2024-01-27T03:03:01.194Z,4.30
2024-01-27T03:05:31.061Z,4.90
2024-01-27T03:08:01.395Z,4.70
2024-01-27T03:10:33.769Z,4.60
2024-01-27T03:13:03.949Z,4.72
2024-01-27T03:15:33.893Z,4.50
2024-01-27T03:18:03.901Z,4.75
2024-01-27T03:20:34.914Z,4.22
2024-01-27T03:23:04.828Z,4.40
2024-01-27T03:25:37.431Z,5.22
2024-01-27T03:28:08.036Z,4.72
2024-01-27T03:30:38.170Z,5.18
2024-01-27T03:33:12.202Z,4.65
2024-01-27T03:35:43.475Z,5.07
2024-01-27T03:38:13.342Z,4.10
2024-01-27T03:40:45.741Z,4.90
2024-01-27T03:43:15.573Z,4.88
2024-01-27T03:45:45.486Z,4.95
2024-01-27T03:48:15.457Z,4.93
2024-01-27T03:50:45.902Z,5.15
2024-01-27T03:53:15.723Z,5.05
2024-01-27T03:55:48.160Z,5.60
2024-01-27T03:58:18.070Z,4.82
2024-01-27T04:00:48.113Z,5.22
2024-01-27T04:03:18.351Z,6.00
2024-01-27T04:05:48.754Z,6.00
2024-01-27T04:08:18.703Z,5.55
2024-01-27T04:10:51.266Z,5.45
2024-01-27T04:13:21.133Z,5.15
2024-01-27T04:15:52.532Z,5.45
2024-01-27T04:18:22.532Z,4.75
2024-01-27T04:20:52.476Z,5.32
2024-01-27T04:23:22.306Z,5.30
2024-01-27T04:25:54.794Z,5.68
2024-01-27T04:28:24.655Z,5.13
2024-01-27T04:30:54.569Z,5.10
2024-01-27T04:33:24.575Z,4.38
2024-01-27T04:35:54.575Z,5.00
2024-01-27T04:38:25.211Z,4.68
2024-01-27T04:40:57.681Z,5.18
2024-01-27T04:43:27.513Z,5.38
2024-01-27T04:45:57.323Z,5.38
2024-01-27T04:48:27.277Z,5.38
2024-01-27T04:50:58.001Z,5.93
2024-01-27T04:53:27.933Z,4.65
2024-01-27T04:56:00.404Z,4.93
2024-01-27T04:58:30.268Z,5.32
2024-01-27T05:01:00.160Z,5.57
2024-01-27T05:03:30.048Z,5.32
2024-01-27T05:05:59.969Z,5.25
2024-01-27T05:08:29.921Z,5.13
2024-01-27T05:11:02.357Z,5.03
2024-01-27T05:13:32.258Z,5.60
2024-01-27T05:16:02.091Z,5.55
2024-01-27T05:18:32.125Z,4.82
2024-01-27T05:21:02.144Z,5.25
2024-01-27T05:23:32.061Z,6.00
2024-01-27T05:26:04.552Z,5.45
2024-01-27T05:28:34.712Z,5.28
2024-01-27T05:31:04.559Z,4.85
2024-01-27T05:33:34.590Z,4.95
2024-01-27T05:36:04.645Z,5.30
2024-01-27T05:38:34.927Z,5.18
2024-01-27T05:41:07.958Z,4.75
2024-01-27T05:43:37.845Z,5.97
2024-01-27T05:46:07.878Z,6.22
2024-01-27T05:48:38.075Z,5.45
2024-01-27T05:51:08.823Z,5.22
2024-01-27T05:53:40.095Z,6.20
2024-01-27T05:56:12.697Z,5.22
2024-01-27T05:58:42.676Z,5.75
2024-01-27T06:01:12.629Z,5.63
2024-01-27T06:03:44.983Z,5.55
2024-01-27T06:06:15.309Z,5.53
2024-01-27T06:08:45.295Z,5.57
2024-01-27T06:11:17.828Z,5.75
2024-01-27T06:13:49.882Z,6.47
2024-01-27T06:16:21.901Z,6.40
2024-01-27T06:18:51.935Z,4.95
2024-01-27T06:21:21.879Z,5.95
2024-01-27T06:23:51.878Z,6.22
2024-01-27T06:26:24.687Z,5.72
2024-01-27T06:28:54.522Z,6.00
2024-01-27T06:31:24.646Z,6.07
2024-01-27T06:33:54.545Z,6.50
2024-01-27T06:36:25.977Z,6.38
2024-01-27T06:38:56.209Z,5.78
2024-01-27T06:41:28.665Z,4.90
2024-01-27T06:43:58.506Z,5.32
2024-01-27T06:46:28.847Z,5.25
2024-01-27T06:48:58.891Z,5.53
2024-01-27T06:51:28.922Z,5.43
2024-01-27T06:53:58.921Z,5.28
2024-01-27T06:56:31.337Z,5.82
2024-01-27T06:59:01.164Z,5.38
2024-01-27T07:01:31.381Z,5.65
2024-01-27T07:04:01.334Z,4.32
2024-01-27T07:06:31.323Z,5.05
2024-01-27T07:09:01.310Z,5.60
2024-01-27T07:11:33.790Z,5.07
2024-01-27T07:14:03.668Z,5.43
2024-01-27T07:16:33.682Z,5.28
2024-01-27T07:19:03.893Z,4.82
2024-01-27T07:21:34.058Z,5.43
2024-01-27T07:24:04.568Z,4.82
2024-01-27T07:26:37.050Z,5.72
2024-01-27T07:29:06.935Z,5.07
2024-01-27T07:31:36.781Z,5.35
2024-01-27T07:34:07.643Z,4.45
2024-01-27T07:36:37.783Z,5.38
2024-01-27T07:39:09.033Z,5.07
2024-01-27T07:41:41.684Z,5.15
2024-01-27T07:44:13.056Z,5.25
2024-01-27T07:46:43.289Z,5.25
2024-01-27T07:49:14.558Z,5.25
2024-01-27T07:51:44.593Z,5.05
2024-01-27T07:54:14.503Z,4.97
2024-01-27T07:56:46.989Z,4.53
2024-01-27T07:59:17.643Z,5.30
2024-01-27T08:01:47.565Z,4.60
2024-01-27T08:04:17.934Z,5.18
2024-01-27T08:06:52.613Z,4.97
2024-01-27T08:09:22.802Z,5.07
2024-01-27T08:11:55.546Z,5.85
2024-01-27T08:14:25.405Z,5.55
2024-01-27T08:16:57.996Z,5.38
2024-01-27T08:19:29.196Z,5.28
2024-01-27T08:21:59.134Z,5.28
2024-01-27T08:24:29.123Z,5.13
2024-01-27T08:27:02.788Z,5.25
2024-01-27T08:29:32.740Z,5.28
2024-01-27T08:32:02.754Z,6.10
2024-01-27T08:34:32.785Z,8.63
2024-01-27T08:37:04.891Z,7.38
2024-01-27T08:39:34.770Z,6.55
2024-01-27T08:42:07.707Z,6.43
2024-01-27T08:44:37.580Z,5.68
2024-01-27T08:47:08.732Z,6.45
2024-01-27T08:49:39.041Z,6.45
2024-01-27T08:52:09.406Z,6.55
2024-01-27T08:54:39.691Z,6.03
2024-01-27T08:57:12.257Z,4.85
2024-01-27T08:59:42.498Z,5.55
2024-01-27T09:02:12.568Z,5.07
2024-01-27T09:04:42.613Z,5.60
2024-01-27T09:07:12.535Z,5.72
2024-01-27T09:09:42.439Z,6.00
2024-01-27T09:12:14.934Z,5.30
2024-01-27T09:14:45.256Z,6.15
2024-01-27T09:17:15.140Z,5.88
2024-01-27T09:19:45.041Z,5.03
2024-01-27T09:22:15.072Z,5.68
2024-01-27T09:24:45.111Z,5.25
2024-01-27T09:27:18.380Z,4.72
2024-01-27T09:29:48.298Z,5.57
2024-01-27T09:32:18.159Z,4.18
2024-01-27T09:34:48.325Z,4.55
2024-01-27T09:37:18.275Z,4.78
2024-01-27T09:39:48.188Z,5.18
2024-01-27T09:42:24.950Z,5.38
2024-01-27T09:44:56.873Z,5.50
2024-01-27T09:47:26.852Z,4.95
2024-01-27T09:49:56.846Z,3.85
2024-01-27T09:52:26.866Z,4.60
2024-01-27T09:54:57.034Z,5.07
2024-01-27T09:57:29.863Z,4.40
2024-01-27T10:00:01.778Z,4.97
2024-01-27T10:02:32.739Z,5.53
2024-01-27T10:05:04.191Z,4.88
2024-01-27T10:07:34.327Z,4.95
2024-01-27T10:10:04.243Z,3.85
2024-01-27T10:12:39.762Z,4.90
2024-01-27T10:15:10.470Z,4.63
2024-01-27T10:17:40.339Z,4.57
2024-01-27T10:20:14.521Z,4.15
2024-01-27T10:22:46.211Z,3.88
2024-01-27T10:25:18.244Z,4.55
2024-01-27T10:27:50.719Z,3.72
2024-01-27T10:30:21.799Z,4.10
2024-01-27T10:33:01.705Z,4.45
2024-01-27T10:35:32.415Z,4.22
2024-01-27T10:38:02.278Z,3.40
2024-01-27T10:40:32.609Z,3.55
2024-01-27T10:43:08.476Z,3.72
2024-01-27T10:45:42.912Z,3.75
2024-01-27T10:48:16.160Z,4.10
2024-01-27T10:50:46.318Z,3.88
2024-01-27T10:53:26.245Z,3.70
2024-01-27T10:56:01.097Z,3.80
2024-01-27T10:58:36.512Z,3.95
2024-01-27T11:01:07.310Z,3.25
2024-01-27T11:03:37.862Z,4.68
2024-01-27T11:06:09.532Z,3.70
2024-01-27T11:08:43.709Z,3.90
2024-01-27T11:11:14.802Z,3.88
2024-01-27T11:13:49.662Z,3.10
2024-01-27T11:16:20.910Z,3.40
2024-01-27T11:18:53.379Z,3.42
2024-01-27T11:21:23.611Z,3.67
2024-01-27T11:23:53.977Z,2.88
2024-01-27T11:26:27.334Z,3.03
2024-01-27T11:29:19.663Z,3.08
2024-01-27T11:31:50.192Z,3.53
2024-01-27T11:34:22.485Z,3.45
2024-01-27T11:36:52.551Z,3.65
2024-01-27T11:39:33.501Z,3.25
2024-01-27T11:42:10.310Z,4.03
2024-01-27T11:44:43.690Z,3.42
2024-01-27T11:47:19.780Z,3.38
2024-01-27T11:49:56.657Z,3.03
2024-01-27T11:52:27.388Z,3.70
2024-01-27T11:55:00.675Z,3.70
2024-01-27T11:57:31.478Z,2.75
2024-01-27T12:00:04.521Z,3.03
2024-01-27T12:02:34.465Z,2.40
2024-01-27T12:05:04.427Z,2.28
2024-01-27T12:07:34.785Z,2.92
2024-01-27T12:10:04.703Z,2.72
2024-01-27T12:12:34.803Z,2.80
2024-01-27T12:15:08.282Z,2.75
2024-01-27T12:17:38.160Z,2.25
2024-01-27T12:20:19.361Z,2.72
2024-01-27T12:22:50.489Z,3.22
2024-01-27T12:25:20.488Z,3.13
2024-01-27T12:27:50.536Z,2.55
2024-01-27T12:30:25.588Z,2.88
2024-01-27T12:32:55.596Z,2.65
2024-01-27T12:35:25.860Z,3.08
2024-01-27T12:37:55.805Z,3.08
2024-01-27T12:40:26.186Z,2.85
2024-01-27T12:42:53.482Z,2.90
2024-01-27T12:45:28.823Z,2.67
2024-01-27T12:48:00.872Z,2.88
2024-01-27T12:50:31.681Z,2.83
2024-01-27T12:53:01.572Z,2.38
2024-01-27T12:55:31.414Z,2.58
2024-01-27T12:58:01.450Z,2.63
2024-01-27T13:00:34.010Z,2.30
2024-01-27T13:03:04.207Z,3.30
2024-01-27T13:05:35.476Z,2.80
2024-01-27T13:08:05.505Z,2.95
2024-01-27T13:10:35.363Z,2.90
2024-01-27T13:13:06.098Z,3.10
2024-01-27T13:15:38.581Z,3.17
2024-01-27T13:18:09.279Z,2.83
2024-01-27T13:20:39.126Z,2.95
2024-01-27T13:23:08.970Z,3.13
2024-01-27T13:25:38.798Z,3.15
2024-01-27T13:28:12.630Z,4.25
2024-01-27T13:30:45.674Z,3.35
2024-01-27T13:33:15.623Z,3.50
2024-01-27T13:35:47.928Z,3.30
2024-01-27T13:38:21.118Z,3.33
2024-01-27T13:40:50.919Z,2.25
2024-01-27T13:43:20.754Z,3.05
2024-01-27T13:45:53.298Z,2.40
2024-01-27T13:48:23.338Z,2.95
2024-01-27T13:50:54.196Z,3.08
2024-01-27T13:53:31.534Z,2.92
2024-01-27T13:56:09.071Z,2.70
2024-01-27T13:58:38.964Z,3.33
2024-01-27T14:01:12.496Z,3.10
2024-01-27T14:03:42.834Z,2.50
2024-01-27T14:06:14.329Z,2.78
2024-01-27T14:08:44.663Z,2.80
2024-01-27T14:11:15.149Z,2.53
2024-01-27T14:13:45.542Z,3.22
2024-01-27T14:16:20.877Z,2.90
2024-01-27T14:18:51.694Z,2.40
2024-01-27T14:21:21.737Z,2.05
2024-01-27T14:23:51.757Z,2.83
2024-01-27T14:26:21.713Z,2.83
2024-01-27T14:28:51.516Z,2.30
2024-01-27T14:31:23.944Z,2.55
2024-01-27T14:33:54.034Z,2.88
2024-01-27T14:36:24.855Z,2.33
2024-01-27T14:38:55.155Z,2.53
2024-01-27T14:41:25.124Z,2.53
2024-01-27T14:43:54.974Z,2.80
2024-01-27T14:46:27.479Z,3.63
2024-01-27T14:48:57.372Z,3.03
2024-01-27T14:51:27.404Z,3.35
2024-01-27T14:53:58.430Z,2.72
2024-01-27T14:56:28.393Z,2.47
2024-01-27T14:58:58.191Z,3.30
2024-01-27T15:01:31.662Z,3.70
2024-01-27T15:04:02.052Z,3.20
2024-01-27T15:06:32.126Z,3.10
2024-01-27T15:09:02.186Z,3.05
2024-01-27T15:11:32.025Z,2.90
2024-01-27T15:14:02.825Z,3.35
2024-01-27T15:16:35.933Z,3.20
2024-01-27T15:19:05.833Z,3.33
2024-01-27T15:21:35.971Z,2.97
2024-01-27T15:24:06.187Z,2.55
2024-01-27T15:26:36.105Z,3.33
2024-01-27T15:29:05.954Z,5.90
2024-01-27T15:31:38.753Z,4.05
2024-01-27T15:34:10.013Z,4.10
2024-01-27T15:36:40.072Z,3.35
2024-01-27T15:39:10.333Z,4.18
2024-01-27T15:41:41.258Z,4.13
2024-01-27T15:44:11.196Z,3.72
2024-01-27T15:46:43.606Z,3.95
2024-01-27T15:49:13.618Z,4.28
2024-01-27T15:51:44.316Z,2.75
2024-01-27T15:54:14.214Z,3.75
2024-01-27T15:56:44.211Z,3.55
2024-01-27T15:59:14.393Z,3.50
2024-01-27T16:01:47.403Z,4.07
2024-01-27T16:04:18.980Z,3.78
2024-01-27T16:06:49.363Z,4.38
2024-01-27T16:09:19.312Z,3.45
2024-01-27T16:11:49.148Z,4.50
2024-01-27T16:14:19.372Z,5.32
2024-01-27T16:16:52.276Z,4.90
2024-01-27T16:19:22.441Z,4.85
2024-01-27T16:21:52.336Z,4.90
2024-01-27T16:24:22.174Z,5.20
2024-01-27T16:26:52.122Z,4.78
2024-01-27T16:29:22.569Z,5.22
2024-01-27T16:31:54.992Z,6.05
2024-01-27T16:34:25.216Z,5.95
2024-01-27T16:36:55.106Z,6.75
2024-01-27T16:39:25.030Z,5.78
2024-01-27T16:41:54.893Z,6.35
2024-01-27T16:44:24.861Z,6.93
2024-01-27T16:46:57.408Z,7.88
2024-01-27T16:49:27.339Z,10.88
2024-01-27T16:51:57.196Z,10.27
2024-01-27T16:54:27.325Z,9.98
2024-01-27T16:56:58.440Z,10.82
2024-01-27T16:59:28.255Z,10.27
2024-01-27T17:02:00.951Z,9.77
2024-01-27T17:04:30.730Z,9.90
2024-01-27T17:07:01.231Z,8.63
2024-01-27T17:09:31.776Z,9.02
2024-01-27T17:12:02.342Z,10.52
2024-01-27T17:14:32.236Z,9.82
2024-01-27T17:17:05.699Z,9.05
2024-01-27T17:19:36.888Z,7.88
2024-01-27T17:22:07.576Z,7.82
2024-01-27T17:24:37.913Z,8.02
2024-01-27T17:27:09.284Z,7.07
2024-01-27T17:29:39.325Z,6.78
2024-01-27T17:32:11.872Z,7.15
2024-01-27T17:34:41.787Z,5.35
2024-01-27T17:37:11.640Z,5.40
2024-01-27T17:39:41.507Z,4.90
2024-01-27T17:42:12.452Z,5.90
2024-01-27T17:44:42.569Z,5.07
2024-01-27T17:47:14.961Z,5.35
2024-01-27T17:49:45.576Z,5.65
2024-01-27T17:52:15.404Z,6.10
2024-01-27T17:54:45.772Z,6.38
2024-01-27T17:57:15.725Z,6.45
2024-01-27T17:59:45.550Z,6.35
2024-01-27T18:02:18.328Z,6.32
2024-01-27T18:04:48.188Z,5.28
2024-01-27T18:07:18.291Z,5.53
2024-01-27T18:09:48.164Z,5.97
2024-01-27T18:12:18.034Z,6.13
2024-01-27T18:14:48.153Z,7.10
2024-01-27T18:17:20.528Z,5.80
2024-01-27T18:19:50.718Z,6.22
2024-01-27T18:22:20.538Z,7.00
2024-01-27T18:24:52.542Z,6.68
2024-01-27T18:27:22.756Z,6.32
2024-01-27T18:29:54.225Z,6.05
2024-01-27T18:32:26.826Z,6.60
2024-01-27T18:34:56.791Z,7.03
2024-01-27T18:37:26.829Z,5.95
2024-01-27T18:39:59.843Z,6.70
2024-01-27T18:42:29.713Z,6.95
2024-01-27T18:44:59.809Z,6.38
2024-01-27T18:47:32.391Z,6.05
2024-01-27T18:50:02.841Z,5.75
2024-01-27T18:52:34.235Z,6.65
2024-01-27T18:55:04.769Z,6.15
2024-01-27T18:57:34.705Z,8.43
2024-01-27T19:00:06.133Z,7.68
2024-01-27T19:02:38.814Z,8.27
2024-01-27T19:05:11.049Z,9.43
2024-01-27T19:07:40.916Z,9.82
2024-01-27T19:10:11.782Z,8.00
2024-01-27T19:12:41.632Z,8.77
2024-01-27T19:15:13.359Z,7.65
2024-01-27T19:17:46.003Z,9.05
2024-01-27T19:20:16.314Z,7.28
2024-01-27T19:22:49.213Z,7.03
2024-01-27T19:25:19.219Z,7.28
2024-01-27T19:27:49.066Z,7.93
2024-01-27T19:30:20.113Z,6.95
2024-01-27T19:32:52.575Z,6.95
2024-01-27T19:35:23.176Z,7.10
2024-01-27T19:37:53.127Z,7.13
2024-01-27T19:40:22.978Z,7.80
2024-01-27T19:42:52.854Z,7.68
2024-01-27T19:45:23.693Z,8.15
2024-01-27T19:47:56.562Z,6.80
2024-01-27T19:50:26.757Z,8.82
2024-01-27T19:52:56.743Z,6.75
2024-01-27T19:55:26.532Z,7.25
2024-01-27T19:57:56.355Z,6.88
2024-01-27T20:00:30.896Z,5.70
2024-01-27T20:03:04.544Z,6.82
2024-01-27T20:05:34.367Z,6.18
2024-01-27T20:08:04.205Z,7.07
2024-01-27T20:10:34.032Z,7.10
2024-01-27T20:13:05.725Z,6.28
2024-01-27T20:15:35.588Z,5.78
2024-01-27T20:18:08.779Z,6.20
2024-01-27T20:20:39.747Z,7.45
2024-01-27T20:23:09.656Z,7.07
2024-01-27T20:25:39.491Z,6.20
2024-01-27T20:28:09.534Z,7.00
2024-01-27T20:30:39.405Z,7.15
2024-01-27T20:33:12.629Z,7.75
2024-01-27T20:35:42.564Z,7.90
2024-01-27T20:38:12.377Z,7.82
2024-01-27T20:40:42.178Z,8.30
2024-01-27T20:43:12.060Z,9.35
2024-01-27T20:45:42.136Z,8.75
2024-01-27T20:48:18.748Z,8.43
2024-01-27T20:50:50.141Z,9.15
2024-01-27T20:53:20.060Z,8.63
2024-01-27T20:55:52.176Z,8.65
2024-01-27T20:58:22.309Z,7.90
2024-01-27T21:00:53.370Z,8.80
2024-01-27T21:03:26.358Z,8.30
2024-01-27T21:05:56.218Z,8.73
2024-01-27T21:08:26.072Z,8.90
2024-01-27T21:10:55.960Z,10.00
2024-01-27T21:13:25.780Z,9.05
2024-01-27T21:15:55.635Z,8.68
2024-01-27T21:18:29.549Z,8.05
2024-01-27T21:21:00.456Z,8.60
2024-01-27T21:23:30.400Z,8.50
2024-01-27T21:26:03.179Z,8.75
2024-01-27T21:28:34.173Z,9.40
2024-01-27T21:31:04.080Z,8.43
2024-01-27T21:33:37.202Z,10.25
2024-01-27T21:36:07.895Z,9.90
2024-01-27T21:38:37.736Z,10.98
2024-01-27T21:41:07.747Z,11.00
2024-01-27T21:43:37.549Z,10.63
2024-01-27T21:46:09.064Z,11.75
2024-01-27T21:48:41.785Z,11.75
2024-01-27T21:51:13.271Z,12.60
2024-01-27T21:53:43.248Z,9.75
2024-01-27T21:56:13.539Z,10.07
2024-01-27T21:58:43.408Z,10.27
2024-01-27T22:01:13.526Z,8.75
2024-01-27T22:03:46.068Z,9.52
2024-01-27T22:06:16.063Z,10.45
2024-01-27T22:08:46.430Z,13.10
2024-01-27T22:11:16.265Z,14.88
2024-01-27T22:13:46.069Z,14.23
2024-01-27T22:16:15.895Z,15.20
2024-01-27T22:18:50.195Z,17.02
2024-01-27T22:21:20.218Z,14.80
2024-01-27T22:23:50.088Z,16.35
2024-01-27T22:26:19.983Z,16.00
2024-01-27T22:28:49.852Z,16.15
2024-01-27T22:31:19.948Z,13.60
2024-01-27T22:33:52.602Z,13.00
2024-01-27T22:36:22.586Z,12.13
2024-01-27T22:38:55.115Z,11.13
2024-01-27T22:41:27.146Z,12.90
2024-01-27T22:43:57.025Z,12.52
2024-01-27T22:46:28.065Z,12.48
2024-01-27T22:49:00.541Z,11.13
2024-01-27T22:51:31.660Z,10.00
2024-01-27T22:54:01.511Z,10.98
2024-01-27T22:56:31.381Z,11.20
2024-01-27T22:59:01.191Z,10.38
2024-01-27T23:01:31.060Z,10.60
2024-01-27T23:04:03.583Z,8.80
2024-01-27T23:06:33.541Z,9.25
2024-01-27T23:09:07.523Z,8.45
2024-01-27T23:11:38.298Z,6.97
2024-01-27T23:14:08.790Z,7.90
2024-01-27T23:16:38.610Z,7.88
2024-01-27T23:19:14.285Z,7.55
2024-01-27T23:21:44.464Z,7.05
2024-01-27T23:24:14.400Z,7.88
2024-01-27T23:26:44.255Z,7.90
2024-01-27T23:29:14.159Z,6.28
2024-01-27T23:31:44.071Z,5.53
2024-01-27T23:34:16.973Z,6.10
2024-01-27T23:36:46.879Z,5.95
2024-01-27T23:39:17.611Z,5.05
2024-01-27T23:41:47.479Z,5.07
2024-01-27T23:44:17.285Z,4.85
2024-01-27T23:46:47.120Z,5.25
2024-01-27T23:49:19.680Z,3.97
2024-01-27T23:51:49.543Z,4.30
2024-01-27T23:54:19.489Z,4.28
2024-01-27T23:56:49.507Z,3.63
2024-01-27T23:59:19.624Z,4.15
